Time;durP1;ratioP1;P1;durP2;ratioP2;P2;SDS_P1;SDS_P2;PMS_P1;PMS_P2;Temp;Humidity;BMP_temperature;BMP_pressure;BME280_temperature;BME280_humidity;BME280_pressure;Samples;Min_cycle;Max_cycle;Signal;HPM_P1;HPM_P2
2022/03/28 00:00:25;;;;;;;10.55;7.80;;;8.60;85.50;;;;;;5064994;28;20253;-66
2022/03/28 00:02:51;;;;;;;11.32;7.43;;;8.60;86.10;;;;;;5058744;28;20660;-66
2022/03/28 00:05:17;;;;;;;10.80;7.22;;;8.60;86.50;;;;;;5056268;28;20285;-66
2022/03/28 00:07:44;;;;;;;12.93;7.40;;;8.60;86.90;;;;;;5058054;28;20372;-66
2022/03/28 00:10:11;;;;;;;9.75;7.35;;;8.50;86.90;;;;;;5067086;28;20198;-66
2022/03/28 00:12:38;;;;;;;10.30;6.80;;;8.40;86.90;;;;;;5069278;28;20597;-66
2022/03/28 00:15:05;;;;;;;14.73;8.07;;;8.50;87.10;;;;;;5062593;28;20200;-66
2022/03/28 00:17:32;;;;;;;11.88;7.90;;;8.10;87.50;;;;;;5070020;28;20641;-66
2022/03/28 00:19:58;;;;;;;9.32;7.40;;;8.40;88.20;;;;;;5060296;28;20228;-66
2022/03/28 00:22:24;;;;;;;11.90;8.60;;;8.10;87.90;;;;;;5069146;28;20201;-66
2022/03/28 00:24:50;;;;;;;9.23;6.90;;;8.30;88.00;;;;;;5062069;28;20821;-67
2022/03/28 00:27:17;;;;;;;8.67;6.40;;;8.40;87.80;;;;;;5064874;28;20446;-66
2022/03/28 00:29:44;;;;;;;15.48;8.75;;;8.10;87.90;;;;;;5060459;28;20182;-66
2022/03/28 00:32:10;;;;;;;10.10;7.85;;;8.00;89.20;;;;;;5058144;28;20231;-66
2022/03/28 00:34:36;;;;;;;12.55;8.35;;;7.90;89.20;;;;;;5043841;28;20209;-66
2022/03/28 00:37:02;;;;;;;10.30;7.72;;;8.10;90.00;;;;;;5068717;28;20177;-66
2022/03/28 00:39:28;;;;;;;14.10;7.50;;;8.10;89.90;;;;;;5050229;28;20192;-66
2022/03/28 00:41:54;;;;;;;10.00;6.63;;;8.20;90.20;;;;;;5063102;28;20201;-66
2022/03/28 00:44:19;;;;;;;11.67;7.10;;;8.10;90.30;;;;;;5050078;28;20651;-66
2022/03/28 00:46:45;;;;;;;9.60;7.07;;;7.90;90.20;;;;;;5064914;28;20590;-66
2022/03/28 00:49:11;;;;;;;8.10;7.03;;;7.90;90.30;;;;;;5066812;28;20197;-66
2022/03/28 00:51:37;;;;;;;8.57;7.03;;;7.80;90.50;;;;;;5059239;28;20468;-66
2022/03/28 00:54:04;;;;;;;8.55;7.32;;;7.80;90.70;;;;;;5062428;28;20480;-66
2022/03/28 00:56:30;;;;;;;12.63;7.60;;;7.70;90.80;;;;;;5058374;28;20219;-66
2022/03/28 00:58:58;;;;;;;11.53;7.20;;;7.70;90.90;;;;;;5056770;28;20225;-66
2022/03/28 01:01:24;;;;;;;14.10;8.63;;;8.00;91.00;;;;;;5061514;28;20201;-66
2022/03/28 01:03:49;;;;;;;12.60;7.63;;;7.70;90.80;;;;;;5043168;28;20235;-66
2022/03/28 01:06:16;;;;;;;11.10;7.80;;;7.70;90.90;;;;;;5060503;28;20527;-66
2022/03/28 01:08:41;;;;;;;10.95;7.43;;;7.60;90.90;;;;;;5064640;28;20223;-66
2022/03/28 01:11:11;;;;;;;12.77;7.60;;;7.60;90.90;;;;;;5056997;28;20181;-66
2022/03/28 01:13:39;;;;;;;10.60;7.63;;;7.70;91.20;;;;;;5060793;28;20204;-66
2022/03/28 01:16:06;;;;;;;10.68;7.43;;;7.60;91.40;;;;;;5052290;28;20189;-66
2022/03/28 01:18:32;;;;;;;9.45;7.15;;;7.70;91.70;;;;;;5058830;28;20193;-66
2022/03/28 01:21:02;;;;;;;11.37;7.13;;;7.60;91.60;;;;;;5055039;28;20676;-66
2022/03/28 01:23:28;;;;;;;12.90;8.02;;;7.80;91.50;;;;;;5063656;28;20272;-66
2022/03/28 01:25:56;;;;;;;10.27;6.93;;;7.40;91.40;;;;;;5057321;28;20264;-66
2022/03/28 01:28:24;;;;;;;11.68;7.90;;;7.80;91.70;;;;;;5058896;28;20439;-66
2022/03/28 01:30:50;;;;;;;11.95;8.65;;;7.40;91.40;;;;;;5063229;28;20182;-66
2022/03/28 01:33:15;;;;;;;9.73;7.07;;;7.60;91.70;;;;;;5061245;28;20209;-66
2022/03/28 01:35:43;;;;;;;15.80;7.60;;;7.60;91.80;;;;;;5047433;28;20760;-66
2022/03/28 01:38:11;;;;;;;11.73;7.55;;;7.50;91.70;;;;;;5045695;28;20548;-66
2022/03/28 01:40:39;;;;;;;11.40;6.85;;;7.40;91.60;;;;;;5063335;28;20874;-66
2022/03/28 01:43:05;;;;;;;10.98;7.60;;;7.60;91.60;;;;;;5062451;28;20523;-66
2022/03/28 01:45:31;;;;;;;15.63;8.00;;;7.30;91.60;;;;;;5054374;28;20233;-66
2022/03/28 01:47:56;;;;;;;11.17;7.70;;;7.40;91.70;;;;;;5060669;28;20436;-66
2022/03/28 01:50:22;;;;;;;11.50;7.90;;;7.00;92.00;;;;;;5052579;28;20182;-66
2022/03/28 01:52:48;;;;;;;13.45;7.65;;;7.30;91.70;;;;;;5056341;28;20209;-66
2022/03/28 01:55:14;;;;;;;11.95;7.78;;;7.60;91.90;;;;;;5062433;28;20217;-66
2022/03/28 01:57:42;;;;;;;10.35;7.00;;;7.20;91.70;;;;;;5048040;28;20177;-66
2022/03/28 02:00:16;;;;;;;11.43;7.78;;;7.50;91.80;;;;;;5054687;28;20694;-66
2022/03/28 02:02:43;;;;;;;11.65;8.20;;;7.40;91.90;;;;;;5061403;28;20205;-66
2022/03/28 02:05:12;;;;;;;10.85;7.60;;;7.30;91.70;;;;;;5056084;28;20188;-66
2022/03/28 02:07:39;;;;;;;8.20;7.00;;;6.80;91.60;;;;;;5055596;28;20641;-66
2022/03/28 02:10:09;;;;;;;11.15;7.25;;;7.20;91.80;;;;;;5056308;28;20549;-66
2022/03/28 02:12:35;;;;;;;12.98;6.97;;;7.20;91.70;;;;;;5051014;28;20205;-66
2022/03/28 02:15:02;;;;;;;13.17;8.90;;;7.10;91.60;;;;;;5034852;28;20217;-66
2022/03/28 02:17:27;;;;;;;11.80;7.45;;;7.00;91.60;;;;;;5059249;28;20926;-66
2022/03/28 02:19:53;;;;;;;10.80;7.50;;;7.10;91.80;;;;;;5044602;28;20181;-66
2022/03/28 02:22:18;;;;;;;8.40;6.87;;;6.60;91.70;;;;;;5062489;28;20207;-66
2022/03/28 02:24:44;;;;;;;13.30;7.67;;;7.00;92.20;;;;;;5057784;28;20193;-66
2022/03/28 02:27:09;;;;;;;10.67;7.10;;;7.10;92.00;;;;;;5062365;28;20176;-66
2022/03/28 02:29:35;;;;;;;13.03;7.80;;;6.90;91.70;;;;;;5060717;28;20201;-66
2022/03/28 02:32:01;;;;;;;11.07;7.47;;;7.00;92.00;;;;;;5064630;28;20300;-66
2022/03/28 02:34:27;;;;;;;12.75;8.00;;;6.90;91.80;;;;;;5038900;28;20201;-66
2022/03/28 02:36:53;;;;;;;12.63;7.70;;;7.20;91.70;;;;;;5059893;28;20662;-66
2022/03/28 02:39:18;;;;;;;10.50;7.53;;;7.20;91.70;;;;;;5044898;28;20459;-66
2022/03/28 02:41:44;;;;;;;10.83;7.57;;;7.10;91.80;;;;;;5073867;28;20663;-66
2022/03/28 02:44:09;;;;;;;10.43;7.57;;;7.00;91.80;;;;;;5047448;28;20268;-66
2022/03/28 02:46:36;;;;;;;10.33;7.37;;;6.60;91.50;;;;;;5057375;28;20178;-66
2022/03/28 02:49:03;;;;;;;12.90;7.90;;;6.80;91.30;;;;;;5059325;28;20186;-66
2022/03/28 02:51:29;;;;;;;17.63;7.40;;;7.00;91.30;;;;;;5067467;28;20201;-66
2022/03/28 02:53:54;;;;;;;12.40;7.30;;;6.90;91.20;;;;;;5060540;28;20279;-66
2022/03/28 02:56:20;;;;;;;12.50;7.50;;;6.90;91.30;;;;;;5061438;28;20230;-66
2022/03/28 02:58:45;;;;;;;10.83;6.97;;;7.10;91.40;;;;;;5041626;28;20200;-66
2022/03/28 03:01:11;;;;;;;10.53;6.87;;;6.70;90.80;;;;;;5040718;28;20936;-66
2022/03/28 03:03:36;;;;;;;15.30;8.03;;;7.00;91.40;;;;;;5061613;28;20197;-66
2022/03/28 03:06:02;;;;;;;11.23;7.10;;;7.00;91.70;;;;;;5045158;28;20613;-66
2022/03/28 03:08:28;;;;;;;10.50;7.55;;;7.00;91.60;;;;;;5064053;28;20728;-66
2022/03/28 03:10:54;;;;;;;11.40;7.40;;;6.70;91.50;;;;;;5059185;28;20185;-66
2022/03/28 03:13:20;;;;;;;12.30;7.60;;;6.30;91.30;;;;;;5055133;28;20219;-66
2022/03/28 03:15:46;;;;;;;11.75;7.63;;;6.60;91.50;;;;;;5053313;28;20182;-66
2022/03/28 03:18:12;;;;;;;15.57;8.53;;;6.90;91.70;;;;;;5062019;28;20809;-66
2022/03/28 03:20:37;;;;;;;9.27;6.93;;;7.00;91.60;;;;;;5056138;28;20523;-66
2022/03/28 03:23:03;;;;;;;11.03;7.47;;;6.60;91.40;;;;;;5064506;28;20573;-66
2022/03/28 03:25:29;;;;;;;9.47;6.90;;;6.80;91.40;;;;;;5057190;28;20280;-66
2022/03/28 03:27:55;;;;;;;12.17;7.80;;;7.30;91.60;;;;;;5067270;28;20496;-66
2022/03/28 03:30:21;;;;;;;11.40;6.90;;;6.80;91.60;;;;;;5063318;28;20442;-66
2022/03/28 03:32:46;;;;;;;11.60;7.60;;;6.60;91.80;;;;;;5065102;28;20458;-66
2022/03/28 03:35:12;;;;;;;11.67;7.10;;;6.70;92.10;;;;;;5043098;28;20236;-66
2022/03/28 03:37:39;;;;;;;8.07;7.27;;;6.20;91.90;;;;;;5061333;28;20307;-65
2022/03/28 03:40:07;;;;;;;12.50;7.95;;;6.70;92.20;;;;;;5053644;28;20458;-65
2022/03/28 03:42:32;;;;;;;10.70;8.45;;;6.70;92.40;;;;;;5065868;28;20201;-65
2022/03/28 03:44:59;;;;;;;11.60;7.43;;;6.20;92.40;;;;;;5043826;28;20193;-65
2022/03/28 03:47:24;;;;;;;12.90;8.82;;;6.50;92.60;;;;;;5058792;28;20184;-64
2022/03/28 03:49:50;;;;;;;12.17;7.83;;;6.00;92.50;;;;;;5054371;28;20600;-64
2022/03/28 03:52:16;;;;;;;12.70;8.70;;;6.40;92.80;;;;;;5057070;28;20416;-65
2022/03/28 03:54:41;;;;;;;11.43;8.07;;;6.40;92.90;;;;;;5054466;28;20531;-65
2022/03/28 03:57:07;;;;;;;12.87;8.50;;;6.10;92.70;;;;;;5046331;28;20185;-64
2022/03/28 03:59:33;;;;;;;11.93;7.80;;;5.70;92.90;;;;;;5056329;28;20552;-65
2022/03/28 04:01:59;;;;;;;9.97;7.27;;;5.70;93.10;;;;;;5059726;28;20460;-65
2022/03/28 04:04:24;;;;;;;11.67;8.57;;;6.30;93.40;;;;;;5054642;28;20443;-65
2022/03/28 04:06:50;;;;;;;15.80;8.80;;;5.70;93.20;;;;;;5054630;28;20447;-64
2022/03/28 04:09:16;;;;;;;16.87;9.40;;;6.30;93.20;;;;;;5062916;28;20208;-65
2022/03/28 04:11:41;;;;;;;14.23;8.03;;;6.30;92.90;;;;;;5062527;28;20713;-64
2022/03/28 04:14:07;;;;;;;11.20;8.37;;;6.20;92.90;;;;;;5056529;28;20767;-65
2022/03/28 04:16:33;;;;;;;11.55;7.60;;;6.20;93.10;;;;;;5048412;28;20177;-65
2022/03/28 04:18:59;;;;;;;13.20;9.00;;;6.30;93.10;;;;;;5062813;28;20188;-64
2022/03/28 04:21:25;;;;;;;9.87;7.73;;;5.70;92.90;;;;;;5055678;28;20537;-65
2022/03/28 04:23:50;;;;;;;13.23;8.67;;;6.20;93.40;;;;;;5063728;28;20193;-65
2022/03/28 04:26:16;;;;;;;10.50;7.47;;;6.30;93.30;;;;;;5055299;28;20635;-65
2022/03/28 04:28:42;;;;;;;13.97;7.77;;;6.30;93.50;;;;;;5041799;28;20197;-64
2022/03/28 04:31:09;;;;;;;12.40;8.23;;;6.00;93.30;;;;;;5062115;28;20650;-65
2022/03/28 04:33:34;;;;;;;13.02;7.68;;;6.30;93.80;;;;;;5059730;28;20727;-65
2022/03/28 04:36:00;;;;;;;12.70;8.13;;;6.30;93.60;;;;;;5049156;28;20189;-65
2022/03/28 04:38:26;;;;;;;11.67;7.07;;;6.40;93.80;;;;;;5056726;28;20267;-65
2022/03/28 04:40:52;;;;;;;12.90;8.03;;;6.10;93.90;;;;;;5060242;28;20442;-65
2022/03/28 04:43:17;;;;;;;12.70;7.50;;;6.30;94.00;;;;;;5067232;28;20203;-65
2022/03/28 04:45:44;;;;;;;12.37;7.60;;;5.90;94.00;;;;;;5052553;28;20181;-64
2022/03/28 04:48:09;;;;;;;10.07;7.25;;;6.10;94.10;;;;;;5054196;28;20217;-65
2022/03/28 04:50:35;;;;;;;13.10;8.40;;;6.10;93.70;;;;;;5051811;28;20233;-65
2022/03/28 04:53:01;;;;;;;12.97;9.00;;;5.70;93.80;;;;;;5060188;28;20733;-65
2022/03/28 04:55:27;;;;;;;12.53;8.30;;;5.80;94.20;;;;;;5056129;28;20787;-64
2022/03/28 04:57:52;;;;;;;11.88;8.23;;;5.40;94.60;;;;;;5064486;28;20208;-64
2022/03/28 05:00:18;;;;;;;13.07;8.50;;;5.30;95.00;;;;;;5041566;28;20229;-64
2022/03/28 05:02:43;;;;;;;13.47;9.40;;;5.60;95.10;;;;;;5049837;28;20263;-66
2022/03/28 05:05:09;;;;;;;18.60;9.30;;;5.40;94.90;;;;;;5050519;28;20272;-65
2022/03/28 05:07:36;;;;;;;14.27;8.70;;;6.00;94.70;;;;;;5057886;28;20197;-66
2022/03/28 05:10:03;;;;;;;14.68;8.77;;;5.90;94.50;;;;;;5062863;28;20442;-65
2022/03/28 05:12:28;;;;;;;15.40;8.90;;;6.00;94.80;;;;;;5052630;28;20217;-66
2022/03/28 05:14:55;;;;;;;16.93;9.77;;;6.00;95.00;;;;;;5051553;28;20204;-65
2022/03/28 05:17:26;;;;;;;15.98;8.30;;;6.20;95.00;;;;;;5059949;28;20920;-65
2022/03/28 05:19:53;;;;;;;12.75;9.07;;;6.10;94.70;;;;;;5061182;28;20181;-66
2022/03/28 05:22:19;;;;;;;19.35;10.38;;;5.90;94.40;;;;;;5064996;28;20201;-65
2022/03/28 05:24:45;;;;;;;11.80;7.47;;;5.80;94.60;;;;;;5059090;28;20228;-65
2022/03/28 05:27:11;;;;;;;12.68;8.55;;;6.10;94.90;;;;;;5055595;28;20650;-65
2022/03/28 05:29:37;;;;;;;16.80;8.27;;;6.00;95.10;;;;;;5053694;28;20186;-66
2022/03/28 05:32:03;;;;;;;10.70;8.77;;;6.20;95.00;;;;;;5058954;28;20217;-65
2022/03/28 05:34:30;;;;;;;12.13;8.52;;;6.00;94.80;;;;;;5037955;28;21131;-66
2022/03/28 05:36:57;;;;;;;13.02;8.70;;;6.20;94.60;;;;;;5051618;28;20196;-66
2022/03/28 05:39:23;;;;;;;11.90;8.43;;;6.10;94.80;;;;;;5063197;28;20185;-66
2022/03/28 05:41:48;;;;;;;14.07;8.83;;;6.40;94.60;;;;;;5063383;28;20215;-66
2022/03/28 05:44:14;;;;;;;14.60;8.90;;;6.90;96.50;;;;;;5060077;28;20943;-66
2022/03/28 05:46:40;;;;;;;17.83;9.70;;;6.50;97.50;;;;;;5055319;28;20212;-63
2022/03/28 05:49:05;;;;;;;16.47;10.20;;;6.90;96.30;;;;;;5062353;28;20301;-66
2022/03/28 05:51:31;;;;;;;13.37;8.93;;;7.20;95.70;;;;;;5035906;28;20246;-63
2022/03/28 05:53:56;;;;;;;17.70;11.70;;;7.40;94.50;;;;;;5047280;28;20206;-63
2022/03/28 05:56:22;;;;;;;18.63;9.33;;;7.00;93.20;;;;;;5053766;28;20241;-64
2022/03/28 05:58:48;;;;;;;18.37;9.80;;;6.90;93.60;;;;;;5042346;28;20184;-64
2022/03/28 06:01:13;;;;;;;14.57;9.70;;;6.80;93.40;;;;;;5053831;28;20194;-63
2022/03/28 06:03:39;;;;;;;17.53;9.23;;;6.60;93.70;;;;;;5032721;28;20200;-64
2022/03/28 06:06:07;;;;;;;17.73;9.90;;;6.20;93.60;;;;;;5047115;28;20257;-61
2022/03/28 06:08:33;;;;;;;17.13;10.10;;;6.80;93.80;;;;;;5051049;28;20319;-60
2022/03/28 06:10:58;;;;;;;16.10;9.77;;;6.70;93.80;;;;;;5044549;28;20185;-69
2022/03/28 06:13:24;;;;;;;17.53;9.90;;;6.60;93.80;;;;;;5031758;28;20697;-66
2022/03/28 06:15:49;;;;;;;18.00;11.17;;;6.70;93.70;;;;;;5027146;28;20184;-67
2022/03/28 06:18:15;;;;;;;18.93;9.93;;;6.90;93.80;;;;;;5031506;28;22114;-66
2022/03/28 06:20:41;;;;;;;15.70;9.87;;;7.20;94.00;;;;;;5047281;28;20193;-66
2022/03/28 06:23:09;;;;;;;15.87;10.50;;;6.60;93.60;;;;;;5048813;28;20467;-65
2022/03/28 06:25:35;;;;;;;16.98;11.20;;;7.00;93.70;;;;;;5051175;28;20538;-66
2022/03/28 06:28:00;;;;;;;16.63;9.55;;;7.40;93.40;;;;;;5032256;28;20181;-61
2022/03/28 06:30:26;;;;;;;18.50;10.07;;;7.60;93.20;;;;;;5049561;28;20216;-62
2022/03/28 06:32:52;;;;;;;13.83;9.87;;;7.90;92.60;;;;;;5048135;28;20230;-69
2022/03/28 06:35:20;;;;;;;18.30;10.40;;;8.10;91.90;;;;;;5048042;28;20965;-66
2022/03/28 06:37:52;;;;;;;17.33;9.85;;;8.00;91.70;;;;;;5035987;28;20169;-66
2022/03/28 06:40:17;;;;;;;16.35;10.10;;;8.50;91.10;;;;;;5032636;28;20195;-64
2022/03/28 06:42:43;;;;;;;16.27;10.80;;;9.00;89.90;;;;;;5028790;28;20205;-64
2022/03/28 06:45:10;;;;;;;16.73;10.27;;;8.80;87.70;;;;;;5042556;28;20331;-67
2022/03/28 06:47:37;;;;;;;18.00;10.60;;;8.90;87.70;;;;;;5030216;28;20532;-65
2022/03/28 06:50:05;;;;;;;14.90;9.95;;;9.30;87.00;;;;;;5045607;28;20735;-63
2022/03/28 06:52:31;;;;;;;16.45;11.10;;;9.40;84.90;;;;;;5030712;28;20226;-66
2022/03/28 06:54:57;;;;;;;16.83;9.88;;;9.80;83.90;;;;;;5049059;28;20269;-65
2022/03/28 06:57:23;;;;;;;18.30;10.10;;;10.10;81.60;;;;;;5047516;28;20619;-58
2022/03/28 06:59:48;;;;;;;14.47;9.80;;;11.00;79.30;;;;;;5028884;28;20182;-65
2022/03/28 07:02:14;;;;;;;15.03;9.97;;;11.90;75.20;;;;;;5048584;28;20200;-69
2022/03/28 07:04:40;;;;;;;16.60;9.97;;;13.40;72.20;;;;;;5041495;28;20193;-67
2022/03/28 07:07:08;;;;;;;20.10;10.90;;;15.10;66.60;;;;;;5020356;28;20581;-66
2022/03/28 07:09:37;;;;;;;14.15;9.68;;;14.90;63.50;;;;;;5050542;28;20186;-71
2022/03/28 07:12:05;;;;;;;15.60;11.50;;;15.10;61.60;;;;;;5053216;28;20214;-68
2022/03/28 07:14:32;;;;;;;17.52;11.18;;;15.20;59.90;;;;;;5049367;28;20336;-67
2022/03/28 07:16:57;;;;;;;17.65;11.55;;;16.60;59.50;;;;;;5049998;28;20179;-68
2022/03/28 07:19:23;;;;;;;14.27;10.80;;;18.70;54.20;;;;;;5031055;28;20242;-71
2022/03/28 07:21:49;;;;;;;18.07;11.10;;;20.10;50.40;;;;;;5032336;28;20204;-60
2022/03/28 07:24:17;;;;;;;13.60;11.27;;;21.40;48.00;;;;;;5049986;28;20186;-70
2022/03/28 07:26:48;;;;;;;15.83;12.27;;;22.60;45.30;;;;;;5050871;28;20205;-69
2022/03/28 07:29:15;;;;;;;16.90;12.83;;;23.90;43.10;;;;;;5052659;28;20435;-70
2022/03/28 07:31:41;;;;;;;18.87;13.00;;;24.70;40.60;;;;;;5052991;28;21071;-72
2022/03/28 07:36:54;;;;;;;15.67;12.87;;;26.70;36.70;;;;;;5054740;28;20201;-71
2022/03/28 07:39:20;;;;;;;18.83;12.60;;;27.00;35.90;;;;;;5053419;28;20455;-71
2022/03/28 07:41:46;;;;;;;22.13;12.83;;;27.60;34.60;;;;;;5054520;28;21057;-72
2022/03/28 07:44:12;;;;;;;18.33;12.30;;;27.40;34.10;;;;;;5028217;28;20203;-69
2022/03/28 07:46:38;;;;;;;15.90;12.80;;;26.80;34.00;;;;;;5052834;28;20444;-67
2022/03/28 07:49:04;;;;;;;19.53;13.30;;;26.90;34.00;;;;;;5053604;28;20222;-69
2022/03/28 07:51:29;;;;;;;14.60;13.03;;;26.80;33.60;;;;;;5051790;28;20203;-68
2022/03/28 07:53:55;;;;;;;54.00;48.33;;;26.60;33.80;;;;;;5053298;28;20871;-68
2022/03/28 07:56:22;;;;;;;17.00;13.27;;;26.40;34.00;;;;;;5050238;28;20193;-68
2022/03/28 07:58:47;;;;;;;18.37;13.97;;;26.90;33.30;;;;;;5048882;28;20183;-68
2022/03/28 08:01:13;;;;;;;20.13;12.53;;;27.40;32.90;;;;;;5056379;28;20456;-70
2022/03/28 08:03:39;;;;;;;16.97;13.67;;;27.40;32.50;;;;;;5052491;28;20203;-69
2022/03/28 08:06:04;;;;;;;20.60;13.30;;;27.50;32.40;;;;;;5045415;28;20204;-66
2022/03/28 08:08:32;;;;;;;17.07;14.30;;;26.50;33.00;;;;;;5062439;28;20194;-67
2022/03/28 08:10:58;;;;;;;15.87;13.87;;;24.60;33.90;;;;;;5060056;28;20448;-69
2022/03/28 08:13:24;;;;;;;17.63;13.60;;;26.10;34.90;;;;;;5059986;28;20527;-67
2022/03/28 08:15:50;;;;;;;17.87;14.97;;;26.60;33.70;;;;;;5056249;28;20463;-68
2022/03/28 08:18:16;;;;;;;21.00;13.47;;;27.50;32.20;;;;;;5044983;28;20222;-72
2022/03/28 08:20:43;;;;;;;18.53;14.87;;;28.00;32.00;;;;;;5049750;28;20188;-69
2022/03/28 08:23:09;;;;;;;17.20;14.57;;;29.00;30.50;;;;;;5062321;28;20463;-66
2022/03/28 08:25:35;;;;;;;20.07;15.63;;;28.00;31.30;;;;;;5061329;28;20446;-65
2022/03/28 08:28:01;;;;;;;32.47;16.73;;;27.20;32.10;;;;;;5055888;28;20946;-70
2022/03/28 08:30:27;;;;;;;21.80;14.93;;;27.50;32.00;;;;;;5049522;28;20181;-69
2022/03/28 08:32:54;;;;;;;17.60;14.43;;;28.40;30.60;;;;;;5049494;28;20463;-68
2022/03/28 08:35:21;;;;;;;19.33;16.07;;;28.40;30.30;;;;;;5052428;28;20870;-69
2022/03/28 08:37:47;;;;;;;18.83;14.83;;;27.80;30.80;;;;;;5062958;28;20443;-60
2022/03/28 08:40:16;;;;;;;15.30;13.00;;;28.40;30.00;;;;;;5056020;28;20467;-63
2022/03/28 08:42:42;;;;;;;26.30;15.63;;;28.40;29.90;;;;;;5054148;28;20270;-64
2022/03/28 08:45:11;;;;;;;18.67;14.10;;;28.00;30.10;;;;;;5053249;28;20444;-63
2022/03/28 08:47:40;;;;;;;16.17;14.30;;;28.40;29.90;;;;;;5052347;28;20199;-63
2022/03/28 08:50:06;;;;;;;22.80;14.67;;;28.20;29.90;;;;;;5052486;28;20813;-62
2022/03/28 08:52:32;;;;;;;17.40;14.20;;;28.50;29.70;;;;;;5061694;28;20458;-65
2022/03/28 08:54:58;;;;;;;17.87;14.63;;;28.40;30.00;;;;;;5050359;28;20466;-63
2022/03/28 08:57:23;;;;;;;20.40;14.67;;;28.40;29.50;;;;;;5055652;28;20646;-65
2022/03/28 08:59:49;;;;;;;19.10;13.53;;;26.40;31.10;;;;;;5055467;28;20207;-64
2022/03/28 09:02:37;;;;;;;17.97;14.73;;;26.30;31.70;;;;;;5057632;28;20235;-67
2022/03/28 09:05:02;;;;;;;16.33;14.10;;;26.40;31.70;;;;;;5057116;28;20571;-65
2022/03/28 09:07:28;;;;;;;21.43;14.50;;;26.40;31.60;;;;;;5061813;28;20465;-67
2022/03/28 09:10:05;;;;;;;22.00;17.00;;;26.60;32.00;;;;;;5057979;28;20475;-61
2022/03/28 09:12:31;;;;;;;18.50;14.87;;;26.50;31.80;;;;;;5056573;28;20465;-67
2022/03/28 09:15:01;;;;;;;18.90;13.80;;;26.20;32.10;;;;;;5053554;28;20463;-71
2022/03/28 09:17:27;;;;;;;16.60;13.97;;;25.10;33.40;;;;;;5039438;28;20189;-60
2022/03/28 09:20:02;;;;;;;19.30;15.07;;;25.10;34.60;;;;;;5053462;28;20441;-66
2022/03/28 09:22:34;;;;;;;21.17;14.37;;;25.00;34.40;;;;;;5042236;28;20990;-68
2022/03/28 09:25:06;;;;;;;15.13;12.80;;;24.70;34.60;;;;;;5050000;28;20443;-70
2022/03/28 09:27:39;;;;;;;17.97;14.00;;;24.70;34.60;;;;;;5032882;28;20857;-69
2022/03/28 09:30:16;;;;;;;17.83;14.37;;;25.20;33.80;;;;;;5052717;28;20442;-65
2022/03/28 09:32:44;;;;;;;20.10;15.70;;;25.20;33.90;;;;;;5037245;28;20994;-67
2022/03/28 09:35:12;;;;;;;20.97;15.60;;;25.90;33.60;;;;;;5052067;28;20998;-68
2022/03/28 09:37:51;;;;;;;16.00;13.80;;;25.70;33.40;;;;;;5032095;28;20448;-69
2022/03/28 09:40:29;;;;;;;17.27;14.10;;;26.40;32.40;;;;;;5051244;28;20436;-67
2022/03/28 09:42:56;;;;;;;16.63;14.53;;;26.40;32.20;;;;;;5049804;28;20458;-70
2022/03/28 09:45:27;;;;;;;18.57;14.23;;;26.40;32.30;;;;;;5058028;28;20438;-67
2022/03/28 09:48:06;;;;;;;19.70;15.30;;;25.90;32.50;;;;;;5059473;28;20867;-69
2022/03/28 09:50:38;;;;;;;18.83;14.40;;;25.90;32.50;;;;;;5051157;28;20499;-65
2022/03/28 09:53:22;;;;;;;19.93;15.10;;;25.40;33.00;;;;;;5057182;28;20574;-62
2022/03/28 09:56:09;;;;;;;19.93;15.20;;;26.60;31.70;;;;;;5057697;28;21006;-62
2022/03/28 09:58:48;;;;;;;16.50;14.90;;;27.40;30.90;;;;;;5053370;28;20430;-63
2022/03/28 10:01:16;;;;;;;22.53;15.43;;;27.80;30.40;;;;;;5051178;28;20438;-62
2022/03/28 10:03:47;;;;;;;21.23;17.67;;;28.60;29.90;;;;;;5053233;28;20519;-61
2022/03/28 10:06:14;;;;;;;24.07;16.67;;;28.80;29.70;;;;;;5048164;28;20450;-60
2022/03/28 10:08:39;;;;;;;21.70;16.30;;;28.30;29.70;;;;;;5058054;28;20456;-61
2022/03/28 10:11:07;;;;;;;20.97;16.67;;;27.20;30.70;;;;;;5058281;28;20434;-61
2022/03/28 10:13:33;;;;;;;19.17;16.47;;;27.80;30.50;;;;;;5057733;28;20650;-61
2022/03/28 10:16:00;;;;;;;19.03;16.20;;;29.10;29.80;;;;;;5052620;28;20504;-61
2022/03/28 10:18:34;;;;;;;18.87;14.90;;;29.30;29.50;;;;;;5055526;28;20436;-62
2022/03/28 10:21:07;;;;;;;19.70;15.03;;;29.90;28.90;;;;;;5048365;28;20932;-62
2022/03/28 10:23:46;;;;;;;28.03;18.50;;;29.40;28.90;;;;;;5053979;28;20440;-62
2022/03/28 10:26:13;;;;;;;21.50;15.67;;;28.40;29.70;;;;;;5049842;28;20454;-62
2022/03/28 10:28:39;;;;;;;18.57;14.83;;;28.20;30.40;;;;;;5048057;28;20439;-62
2022/03/28 10:31:14;;;;;;;17.97;16.20;;;28.00;30.50;;;;;;5058063;28;20484;-63
2022/03/28 10:33:53;;;;;;;22.43;18.10;;;27.50;31.50;;;;;;5057868;28;20842;-61
2022/03/28 10:36:27;;;;;;;23.60;15.87;;;27.40;32.00;;;;;;5048386;28;20440;-62
2022/03/28 10:38:57;;;;;;;20.73;16.93;;;27.50;32.00;;;;;;5048999;28;20482;-62
2022/03/28 10:41:26;;;;;;;22.03;16.50;;;27.10;32.30;;;;;;5051590;28;20567;-61
2022/03/28 10:43:51;;;;;;;19.47;15.80;;;27.20;32.50;;;;;;5047437;28;20481;-62
2022/03/28 10:46:18;;;;;;;19.13;15.97;;;26.80;33.10;;;;;;5044354;28;20476;-61
2022/03/28 10:49:00;;;;;;;22.53;16.00;;;27.10;32.80;;;;;;5059136;28;20588;-61
2022/03/28 10:51:32;;;;;;;22.13;16.67;;;26.90;32.70;;;;;;5048206;28;21034;-62
2022/03/28 10:54:01;;;;;;;21.77;16.73;;;27.00;33.00;;;;;;5049032;28;20471;-60
2022/03/28 10:56:49;;;;;;;21.30;15.73;;;27.40;32.70;;;;;;5065845;28;20938;-60
2022/03/28 10:59:20;;;;;;;22.57;16.70;;;27.70;32.10;;;;;;5056843;28;20475;-65
2022/03/28 11:01:49;;;;;;;19.47;15.80;;;26.90;32.50;;;;;;5045964;28;20548;-65
2022/03/28 11:04:23;;;;;;;17.07;15.17;;;26.50;33.60;;;;;;5050309;28;20450;-66
2022/03/28 11:07:01;;;;;;;17.40;14.13;;;26.90;32.80;;;;;;5053290;28;20450;-65
2022/03/28 11:09:32;;;;;;;23.00;17.03;;;27.40;32.10;;;;;;5057820;28;20467;-61
2022/03/28 11:12:00;;;;;;;23.90;16.17;;;27.60;31.60;;;;;;5060833;28;20462;-63
2022/03/28 11:15:00;;;;;;;21.33;15.33;;;26.80;31.50;;;;;;5043391;28;20463;-63
2022/03/28 11:17:28;;;;;;;20.53;15.67;;;27.10;31.70;;;;;;5061001;28;20437;-64
2022/03/28 11:20:00;;;;;;;18.27;15.83;;;27.60;30.80;;;;;;5052174;28;20440;-66
2022/03/28 11:22:40;;;;;;;18.77;14.70;;;27.50;30.70;;;;;;5057491;28;20501;-68
2022/03/28 11:25:45;;;;;;;20.17;15.43;;;27.60;30.50;;;;;;5051813;28;20448;-70
2022/03/28 11:28:21;;;;;;;18.67;15.23;;;27.50;30.70;;;;;;5051406;28;20435;-67
2022/03/28 11:30:51;;;;;;;16.80;14.60;;;27.40;30.30;;;;;;5054057;28;20967;-70
2022/03/28 11:33:22;;;;;;;19.77;15.77;;;27.60;29.80;;;;;;5050357;28;20521;-68
2022/03/28 11:36:02;;;;;;;16.10;13.47;;;27.20;29.80;;;;;;5052561;28;20860;-71
2022/03/28 11:38:52;;;;;;;18.40;14.20;;;27.20;29.80;;;;;;5064748;28;20444;-64
2022/03/28 11:41:20;;;;;;;16.37;14.30;;;27.20;29.70;;;;;;5061230;28;20424;-64
2022/03/28 11:43:53;;;;;;;18.30;15.00;;;27.50;30.10;;;;;;5065912;28;20849;-65
2022/03/28 11:46:20;;;;;;;15.93;14.20;;;27.00;29.90;;;;;;5058815;28;20519;-68
2022/03/28 11:48:53;;;;;;;18.60;16.60;;;26.90;29.80;;;;;;5056581;28;20925;-70
2022/03/28 11:51:19;;;;;;;17.83;15.80;;;26.80;29.80;;;;;;5049922;28;20435;-71
2022/03/28 11:53:44;;;;;;;17.27;14.70;;;26.80;30.00;;;;;;5048840;28;20494;-67
2022/03/28 11:56:10;;;;;;;17.23;15.13;;;26.40;30.10;;;;;;5057267;28;20268;-67
2022/03/28 11:58:36;;;;;;;20.17;15.80;;;26.40;30.00;;;;;;5050697;28;20524;-66
2022/03/28 12:01:10;;;;;;;18.90;15.00;;;26.30;30.10;;;;;;5053505;28;20182;-66
2022/03/28 12:03:46;;;;;;;16.37;14.23;;;25.90;30.30;;;;;;5052946;28;20185;-61
2022/03/28 12:06:12;;;;;;;20.67;15.40;;;25.20;30.90;;;;;;5057500;28;20957;-61
2022/03/28 12:08:38;;;;;;;20.50;16.70;;;24.90;31.50;;;;;;5057947;28;20459;-61
2022/03/28 12:11:03;;;;;;;21.57;14.43;;;24.90;31.60;;;;;;5037203;28;20258;-61
2022/03/28 12:13:29;;;;;;;17.43;14.33;;;24.40;32.20;;;;;;5052650;28;20449;-61
2022/03/28 12:15:56;;;;;;;22.30;15.77;;;24.70;32.60;;;;;;5055190;28;20194;-61
2022/03/28 12:18:23;;;;;;;20.47;15.50;;;24.50;32.90;;;;;;5053710;28;20205;-63
2022/03/28 12:20:53;;;;;;;21.87;16.90;;;24.70;33.10;;;;;;5035026;28;20458;-66
2022/03/28 12:23:21;;;;;;;16.53;14.73;;;24.60;32.80;;;;;;5054447;28;20459;-67
2022/03/28 12:25:52;;;;;;;21.60;16.00;;;24.40;32.80;;;;;;5052624;28;20931;-68
2022/03/28 12:28:24;;;;;;;19.80;14.83;;;24.10;33.60;;;;;;5032927;28;20450;-64
2022/03/28 12:30:55;;;;;;;20.13;15.63;;;24.00;34.40;;;;;;5052923;28;20438;-72
2022/03/28 12:33:23;;;;;;;19.77;16.10;;;24.00;34.30;;;;;;5040129;28;20757;-70
2022/03/28 12:36:35;;;;;;;20.00;15.83;;;23.80;35.00;;;;;;5052978;28;21003;-69
2022/03/28 12:39:06;;;;;;;17.13;14.23;;;23.80;35.40;;;;;;5053302;28;20887;-66
2022/03/28 12:41:42;;;;;;;19.63;15.17;;;23.60;36.20;;;;;;5056335;28;20459;-66
2022/03/28 12:44:19;;;;;;;20.77;14.83;;;23.60;36.70;;;;;;5038639;28;20507;-66